Darstellungsparameter: Aktuell verwendete Einstellungen:
Skalierung der Graphiken ... ?
xyx+y,   Skalierungsfaktor:      Skalierung: Modus: x, Faktor: 1
Darstellungszeitraum ... ?
Vom - - bis: - -   Zeitraum: 21.06.2010 - 22.06.2010
Min/Max/Avg-Anzeige ... ?
Zeige MMA aktuell
Zeige MMA Monat
Zeige MMA alles
Zeige --A aktuell
Zeige --A Monat
Zeige --A alles
Keine MMA-Anzeige
MMA:
Minimum Maximum Average (ber die Originaldaten)
MMA-Basis: 14.04.2020 - 16.05.2020
Quicknavigation für Darstellung... ?
Tage:      1T, 2T, 3T, 5T -1T -2T -3T -5T +1T +2T +3T +5T
Wochen: 1W, 2W, 3W -1W -2W -3W +1W +2W +3W
Monate: 1M, 3M, 6M -1M -3M -6M +1M +3M +6M
Jahre:    1J, 3J, 5J, 10J -1J -3J -5J -10J +1J +3J +5J +10J
Nutze für die Darstellung ... ?
Originaldaten oder Mittelwerte auf ...
Stundenbasis Tagesbasis Wochenbasis
Monatsbasis Jahresbasis      Datenbasis: Original-Daten
Darstellen als:
Statistik (Auto) Statistik J:M      Darstellung:
Zur Graphik,    zurück zur Übersicht aller Sensoren.
 
Tabellarische Datenbersicht: ?
 
Sensor: Nr:Datum:Temp:Abs-Feuchte:Windchill:Wind:
Aussen-T/F 1 21-06-2010 00:05:02 11.9 C 7.1 g/m*3 11.9 C 0 km/h
2 21-06-2010 00:17:02 11.8 C 7.05 g/m*3 11.8 C 0 km/h
3 21-06-2010 00:29:02 11.4 C 6.98 g/m*3 11.4 C 0 km/h
4 21-06-2010 00:41:02 11.2 C 7.1 g/m*3 11.2 C 0 km/h
5 21-06-2010 00:53:03 11.2 C 7.1 g/m*3 11.2 C 0 km/h
6 21-06-2010 01:05:03 11.1 C 6.95 g/m*3 11.1 C 0 km/h
7 21-06-2010 01:17:03 11.1 C 7.05 g/m*3 11.1 C 0 km/h
8 21-06-2010 01:29:03 11 C 7.01 g/m*3 11 C 0 km/h
9 21-06-2010 01:41:03 10.8 C 7.02 g/m*3 10.8 C 0 km/h
10 21-06-2010 01:53:03 10.7 C 7.07 g/m*3 10.7 C 0 km/h
11 21-06-2010 02:05:03 10.5 C 6.98 g/m*3 10.5 C 0 km/h
12 21-06-2010 02:17:03 10.4 C 7.04 g/m*3 10.4 C 0 km/h
13 21-06-2010 02:29:03 10.1 C 6.9 g/m*3 10.1 C 0 km/h
14 21-06-2010 02:41:03 10.2 C 7.04 g/m*3 10.2 C 0 km/h
15 21-06-2010 02:53:03 10.2 C 6.95 g/m*3 10.2 C 0 km/h
16 21-06-2010 03:05:03 10 C 6.86 g/m*3 10 C 0 km/h
17 21-06-2010 03:17:03 9.8 C 6.87 g/m*3 9.8 C 0 km/h
18 21-06-2010 03:29:03 9.6 C 6.78 g/m*3 9.6 C 0 km/h
19 21-06-2010 03:41:03 9.5 C 6.83 g/m*3 9.5 C 0 km/h
20 21-06-2010 03:53:03 9.3 C 6.74 g/m*3 9.3 C 0 km/h
21 21-06-2010 04:05:03 9.1 C 6.74 g/m*3 9.1 C 0 km/h
22 21-06-2010 04:17:03 9.1 C 6.83 g/m*3 9.1 C 0 km/h
23 21-06-2010 04:29:03 9.2 C 6.97 g/m*3 9.2 C 0 km/h
24 21-06-2010 04:41:03 9.4 C 6.96 g/m*3 9.4 C 0 km/h
25 21-06-2010 04:53:03 9 C 6.79 g/m*3 9 C 0 km/h
Sensor: Nr:Datum:Temp:Abs-Feuchte:Windchill:Wind:
Aussen-T/F 26 21-06-2010 05:05:04 8.8 C 6.88 g/m*3 8.8 C 0 km/h
27 21-06-2010 05:17:04 8.7 C 6.83 g/m*3 8.7 C 0 km/h
28 21-06-2010 05:29:04 8.7 C 6.92 g/m*3 8.7 C 0 km/h
29 21-06-2010 05:41:04 8.6 C 6.87 g/m*3 8.6 C 0 km/h
30 21-06-2010 05:53:04 8.6 C 6.96 g/m*3 8.6 C 0 km/h
31 21-06-2010 06:05:04 8.5 C 7 g/m*3 8.5 C 0 km/h
32 21-06-2010 06:17:04 8.5 C 7 g/m*3 8.5 C 0 km/h
33 21-06-2010 06:29:04 8.6 C 7.13 g/m*3 8.6 C 0 km/h
34 21-06-2010 06:41:04 8.6 C 7.22 g/m*3 8.6 C 0 km/h
35 21-06-2010 06:53:02 8.9 C 7.36 g/m*3 8.9 C 0 km/h
36 21-06-2010 07:05:03 9.1 C 7.36 g/m*3 9.1 C 0 km/h
37 21-06-2010 07:17:03 9.5 C 7.46 g/m*3 9.5 C 0 km/h
38 21-06-2010 07:29:03 9.8 C 7.33 g/m*3 9.8 C 0 km/h
39 21-06-2010 07:41:03 10.6 C 7.22 g/m*3 10.6 C 0 km/h
40 21-06-2010 07:53:02 11.5 C 7.23 g/m*3 11.5 C 0 km/h
41 21-06-2010 08:05:02 12.1 C 7.18 g/m*3 12.1 C 0 km/h
42 21-06-2010 08:17:02 12.3 C 6.95 g/m*3 12.3 C 0 km/h
43 21-06-2010 08:29:02 12.4 C 6.77 g/m*3 12.4 C 0 km/h
44 21-06-2010 08:41:02 12.7 C 6.9 g/m*3 12.7 C 0 km/h
45 21-06-2010 08:53:02 13.2 C 6.77 g/m*3 13.2 C 0 km/h
46 21-06-2010 09:05:01 13.4 C 6.63 g/m*3 13.4 C 0 km/h
47 21-06-2010 09:17:02 13.4 C 6.16 g/m*3 13.4 C 0 km/h
48 21-06-2010 09:29:03 13.7 C 6.39 g/m*3 13.7 C 0 km/h
49 21-06-2010 09:41:01 14.2 C 5.86 g/m*3 14.2 C 0 km/h
50 21-06-2010 09:53:02 14 C 5.43 g/m*3 14 C 0 km/h
Sensor: Nr:Datum:Temp:Abs-Feuchte:Windchill:Wind:
Aussen-T/F 51 21-06-2010 10:05:01 13.9 C 5.39 g/m*3 13.9 C 0 km/h
52 21-06-2010 10:17:02 13.9 C 5.63 g/m*3 13.9 C 0 km/h
53 21-06-2010 10:29:02 13.5 C 6.08 g/m*3 13.5 C 0 km/h
54 21-06-2010 10:41:01 13.5 C 5.97 g/m*3 13.5 C 0 km/h
55 21-06-2010 10:53:02 14 C 5.55 g/m*3 14 C 0 km/h
56 21-06-2010 11:05:02 14.7 C 5.67 g/m*3 14.7 C 0 km/h
57 21-06-2010 11:17:02 14.7 C 5.16 g/m*3 14.7 C 0 km/h
58 21-06-2010 11:29:02 14.2 C 5.13 g/m*3 14.2 C 0 km/h
59 21-06-2010 11:41:02 14.4 C 5.44 g/m*3 14.4 C 0 km/h
60 21-06-2010 11:53:02 15.4 C 5.52 g/m*3 15.4 C 0 km/h
61 21-06-2010 12:05:01 16.3 C 5.27 g/m*3 16.3 C 0 km/h
62 21-06-2010 12:17:02 16.5 C 5.34 g/m*3 16.5 C 0 km/h
63 21-06-2010 12:29:02 16 C 5.18 g/m*3 16 C 0 km/h
64 21-06-2010 12:41:02 14.8 C 5.19 g/m*3 14.8 C 0 km/h
65 21-06-2010 12:53:01 15 C 5.39 g/m*3 15 C 0 km/h
66 21-06-2010 13:05:02 14.7 C 5.29 g/m*3 14.7 C 0 km/h
67 21-06-2010 13:17:01 15.2 C 5.19 g/m*3 15.2 C 0 km/h
68 21-06-2010 13:29:01 16 C 5.04 g/m*3 16 C 0 km/h
69 21-06-2010 13:41:02 18 C 5.07 g/m*3 18 C 0 km/h
70 21-06-2010 13:53:02 19.6 C 4.9 g/m*3 19.6 C 0 km/h
71 21-06-2010 14:05:02 19.3 C 4.81 g/m*3 19.3 C 0 km/h
72 21-06-2010 14:17:01 18.2 C 4.66 g/m*3 18.2 C 0 km/h
73 21-06-2010 14:29:01 18.7 C 4.48 g/m*3 18.7 C 0 km/h
74 21-06-2010 14:41:02 18.9 C 4.86 g/m*3 18.9 C 0 km/h
75 21-06-2010 14:53:02 18 C 4.61 g/m*3 18 C 0 km/h
Sensor: Nr:Datum:Temp:Abs-Feuchte:Windchill:Wind:
Aussen-T/F 76 21-06-2010 15:05:02 17.7 C 4.38 g/m*3 17.7 C 0 km/h
77 21-06-2010 15:17:02 18.4 C 4.88 g/m*3 18.4 C 0 km/h
78 21-06-2010 15:29:02 20 C 4.49 g/m*3 20 C 0 km/h
79 21-06-2010 15:41:02 18.7 C 4.8 g/m*3 18.7 C 0 km/h
80 21-06-2010 15:53:02 18.5 C 4.27 g/m*3 18.5 C 0 km/h
81 21-06-2010 16:05:02 19 C 4.56 g/m*3 19 C 0 km/h
82 21-06-2010 16:17:02 20 C 4.67 g/m*3 20 C 0 km/h
83 21-06-2010 16:29:02 21.2 C 4.63 g/m*3 21.2 C 0 km/h
84 21-06-2010 16:41:02 21 C 4.21 g/m*3 21 C 0 km/h
85 21-06-2010 16:53:02 22.6 C 4.42 g/m*3 22.6 C 0 km/h
86 21-06-2010 17:05:02 21 C 4.03 g/m*3 21 C 0 km/h
87 21-06-2010 17:17:03 20.6 C 4.47 g/m*3 20.6 C 0 km/h
88 21-06-2010 17:29:03 19.3 C 4.64 g/m*3 19.3 C 0 km/h
89 21-06-2010 17:41:02 18.7 C 4.8 g/m*3 18.7 C 0 km/h
90 21-06-2010 17:53:02 18.3 C 5 g/m*3 18.3 C 0 km/h
91 21-06-2010 18:05:02 18.4 C 5.03 g/m*3 18.4 C 0 km/h
92 21-06-2010 18:17:02 18.2 C 4.82 g/m*3 18.2 C 0 km/h
93 21-06-2010 18:29:02 18.4 C 5.03 g/m*3 18.4 C 0 km/h
94 21-06-2010 18:41:02 18.2 C 4.82 g/m*3 18.2 C 0 km/h
95 21-06-2010 18:53:02 18.4 C 5.03 g/m*3 18.4 C 0 km/h
96 21-06-2010 19:05:02 18.2 C 4.97 g/m*3 18.2 C 0 km/h
97 21-06-2010 19:17:02 17.6 C 5.1 g/m*3 17.6 C 0 km/h
98 21-06-2010 19:29:03 17.4 C 5.19 g/m*3 17.4 C 0 km/h
99 21-06-2010 19:41:02 17.3 C 5.3 g/m*3 17.3 C 0 km/h
100 21-06-2010 19:53:02 17.2 C 5.13 g/m*3 17.2 C 0 km/h
Sensor: Nr:Datum:Temp:Abs-Feuchte:Windchill:Wind:
Aussen-T/F 101 21-06-2010 20:05:01 17.2 C 5.86 g/m*3 17.2 C 0 km/h
102 21-06-2010 20:17:02 17.2 C 5.71 g/m*3 17.2 C 0 km/h
103 21-06-2010 20:29:02 16.9 C 6.33 g/m*3 16.9 C 0 km/h
104 21-06-2010 20:41:02 16.6 C 6.36 g/m*3 16.6 C 0 km/h
105 21-06-2010 20:53:01 16.2 C 6.48 g/m*3 16.2 C 0 km/h
106 21-06-2010 21:05:01 16 C 6.4 g/m*3 16 C 0 km/h
107 21-06-2010 21:17:02 15.6 C 6.25 g/m*3 15.6 C 0 km/h
108 21-06-2010 21:29:02 15.2 C 6.1 g/m*3 15.2 C 0 km/h
109 21-06-2010 21:41:01 14.9 C 6.25 g/m*3 14.9 C 0 km/h
110 21-06-2010 21:53:02 14.5 C 5.97 g/m*3 14.5 C 0 km/h
111 21-06-2010 22:05:02 14.2 C 6.11 g/m*3 14.2 C 0 km/h
112 21-06-2010 22:18:03 14 C 6.15 g/m*3 14 C 0 km/h
113 21-06-2010 22:30:03 13.7 C 6.16 g/m*3 13.7 C 0 km/h
114 21-06-2010 22:42:04 13.4 C 6.39 g/m*3 13.4 C 0 km/h
115 21-06-2010 22:54:04 13.4 C 6.28 g/m*3 13.4 C 0 km/h
116 21-06-2010 23:06:04 13.5 C 6.55 g/m*3 13.5 C 0 km/h
117 21-06-2010 23:18:04 13.4 C 6.51 g/m*3 13.4 C 0 km/h
118 21-06-2010 23:30:04 13.4 C 6.51 g/m*3 13.4 C 0 km/h
119 21-06-2010 23:42:04 13.2 C 6.43 g/m*3 13.2 C 0 km/h
120 21-06-2010 23:54:04 13.1 C 6.39 g/m*3 13.1 C 0 km/h
121 22-06-2010 00:06:04 12.8 C 6.5 g/m*3 12.8 C 0 km/h
122 22-06-2010 00:18:04 12.5 C 6.49 g/m*3 12.5 C 0 km/h
123 22-06-2010 00:30:04 12.2 C 6.58 g/m*3 12.2 C 0 km/h
124 22-06-2010 00:42:04 12.1 C 6.65 g/m*3 12.1 C 0 km/h
125 22-06-2010 00:54:04 12.1 C 6.86 g/m*3 12.1 C 0 km/h
Sensor: Nr:Datum:Temp:Abs-Feuchte:Windchill:Wind:
Aussen-T/F 126 22-06-2010 01:06:04 12.2 C 7.01 g/m*3 12.2 C 0 km/h
127 22-06-2010 01:18:04 12.2 C 7.01 g/m*3 12.2 C 0 km/h
128 22-06-2010 01:30:05 12.4 C 6.99 g/m*3 12.4 C 0 km/h
129 22-06-2010 01:42:05 12.2 C 7.01 g/m*3 12.2 C 0 km/h
130 22-06-2010 01:54:05 12.2 C 7.01 g/m*3 12.2 C 0 km/h
131 22-06-2010 02:06:05 12.1 C 6.97 g/m*3 12.1 C 0 km/h
132 22-06-2010 02:18:05 12.2 C 7.01 g/m*3 12.2 C 0 km/h
133 22-06-2010 02:30:05 12 C 7.03 g/m*3 12 C 0 km/h
134 22-06-2010 02:42:05 11.9 C 7.1 g/m*3 11.9 C 0 km/h
135 22-06-2010 02:54:05 11.9 C 7.2 g/m*3 11.9 C 0 km/h
136 22-06-2010 03:06:05 11.9 C 7.31 g/m*3 11.9 C 0 km/h
137 22-06-2010 03:18:05 11.8 C 7.26 g/m*3 11.8 C 0 km/h
138 22-06-2010 03:30:05 11.7 C 7.22 g/m*3 11.7 C 0 km/h
139 22-06-2010 03:42:05 11.8 C 7.26 g/m*3 11.8 C 0 km/h
140 22-06-2010 03:54:05 11.9 C 7.41 g/m*3 11.9 C 0 km/h
141 22-06-2010 04:06:05 11.5 C 7.33 g/m*3 11.5 C 0 km/h
142 22-06-2010 04:18:05 11.4 C 7.29 g/m*3 11.4 C 0 km/h
143 22-06-2010 04:30:05 11.5 C 7.44 g/m*3 11.5 C 0 km/h
144 22-06-2010 04:42:05 11.5 C 7.44 g/m*3 11.5 C 0 km/h
145 22-06-2010 04:54:05 11.5 C 7.44 g/m*3 11.5 C 0 km/h
146 22-06-2010 05:06:05 11.5 C 7.54 g/m*3 11.5 C 0 km/h
147 22-06-2010 05:18:05 11.4 C 7.49 g/m*3 11.4 C 0 km/h
148 22-06-2010 05:30:05 11.4 C 7.49 g/m*3 11.4 C 0 km/h
149 22-06-2010 05:42:05 11.5 C 7.54 g/m*3 11.5 C 0 km/h
150 22-06-2010 05:54:05 11.4 C 7.39 g/m*3 11.4 C 0 km/h
Sensor: Nr:Datum:Temp:Abs-Feuchte:Windchill:Wind:
Aussen-T/F 151 22-06-2010 06:06:06 11.5 C 7.54 g/m*3 11.5 C 0 km/h
152 22-06-2010 06:18:06 11.5 C 7.54 g/m*3 11.5 C 0 km/h
153 22-06-2010 06:30:06 11.6 C 7.69 g/m*3 11.6 C 0 km/h
154 22-06-2010 06:42:03 11.6 C 7.69 g/m*3 11.6 C 0 km/h
155 22-06-2010 06:54:02 11.7 C 7.64 g/m*3 11.7 C 0 km/h
156 22-06-2010 07:06:02 11.9 C 7.73 g/m*3 11.9 C 0 km/h
157 22-06-2010 07:18:02 12 C 7.67 g/m*3 12 C 0 km/h
158 22-06-2010 07:30:02 12.1 C 7.61 g/m*3 12.1 C 0 km/h
159 22-06-2010 07:42:02 12.4 C 7.65 g/m*3 12.4 C 0 km/h
160 22-06-2010 07:54:01 12.8 C 7.73 g/m*3 12.8 C 0 km/h
161 22-06-2010 08:06:02 13.1 C 7.65 g/m*3 13.1 C 0 km/h
162 22-06-2010 08:18:02 13 C 7.14 g/m*3 13 C 0 km/h
163 22-06-2010 08:30:02 12.9 C 7.44 g/m*3 12.9 C 0 km/h
164 22-06-2010 08:42:02 12.9 C 7.66 g/m*3 12.9 C 0 km/h
165 22-06-2010 08:54:02 13.1 C 7.53 g/m*3 13.1 C 0 km/h
166 22-06-2010 09:06:01 13.5 C 7.49 g/m*3 13.5 C 0 km/h
167 22-06-2010 09:18:02 14.2 C 7.45 g/m*3 14.2 C 0 km/h
168 22-06-2010 09:30:03 15.1 C 7.61 g/m*3 15.1 C 0 km/h
169 22-06-2010 09:42:01 15.8 C 7.4 g/m*3 15.8 C 0 km/h
170 22-06-2010 09:54:02 16.4 C 6.7 g/m*3 16.4 C 0 km/h
171 22-06-2010 10:06:01 17.3 C 6.19 g/m*3 17.3 C 0 km/h
172 22-06-2010 10:18:01 17.9 C 6.11 g/m*3 17.9 C 0 km/h
173 22-06-2010 10:30:01 18.7 C 6.56 g/m*3 18.7 C 0 km/h
174 22-06-2010 10:42:02 19.5 C 6.55 g/m*3 19.5 C 0 km/h
175 22-06-2010 10:54:02 20.2 C 6.47 g/m*3 20.2 C 0 km/h
Sensor: Nr:Datum:Temp:Abs-Feuchte:Windchill:Wind:
Aussen-T/F 176 22-06-2010 11:06:01 20.7 C 5.94 g/m*3 20.7 C 0 km/h
177 22-06-2010 11:18:02 20.1 C 6.08 g/m*3 20.1 C 0 km/h
178 22-06-2010 11:30:02 20.4 C 5.84 g/m*3 20.4 C 0 km/h
179 22-06-2010 11:42:02 20.4 C 5.66 g/m*3 20.4 C 0 km/h
180 22-06-2010 11:54:02 19.6 C 5.57 g/m*3 19.6 C 0 km/h
181 22-06-2010 12:06:03 21.4 C 6 g/m*3 21.4 C 0 km/h
182 22-06-2010 12:18:02 23.3 C 5.23 g/m*3 23.3 C 0 km/h
183 22-06-2010 12:30:02 20.7 C 5.4 g/m*3 20.7 C 0 km/h
184 22-06-2010 12:42:02 19.9 C 5.5 g/m*3 19.9 C 0 km/h
185 22-06-2010 12:54:01 20.1 C 5.21 g/m*3 20.1 C 0 km/h
186 22-06-2010 13:06:02 22.5 C 4.99 g/m*3 22.5 C 0 km/h
187 22-06-2010 13:18:01 20.4 C 5.31 g/m*3 20.4 C 0 km/h
188 22-06-2010 13:30:01 20.7 C 5.4 g/m*3 20.7 C 0 km/h
189 22-06-2010 13:42:01 22.1 C 5.47 g/m*3 22.1 C 0 km/h
190 22-06-2010 13:54:01 22.7 C 5.25 g/m*3 22.7 C 0 km/h
191 22-06-2010 14:06:02 23 C 4.93 g/m*3 23 C 0 km/h
192 22-06-2010 14:18:01 23.1 C 5.37 g/m*3 23.1 C 0 km/h
193 22-06-2010 14:30:01 23.2 C 5.41 g/m*3 23.2 C 0 km/h
194 22-06-2010 14:42:01 23.3 C 5.23 g/m*3 23.3 C 0 km/h
195 22-06-2010 14:54:01 23.9 C 4.98 g/m*3 23.9 C 0 km/h
196 22-06-2010 15:06:02 23.9 C 4.98 g/m*3 23.9 C 0 km/h
197 22-06-2010 15:18:02 24.7 C 4.75 g/m*3 24.7 C 0 km/h
198 22-06-2010 15:30:02 24.9 C 5.49 g/m*3 24.9 C 0 km/h
199 22-06-2010 15:42:01 25 C 5.06 g/m*3 25 C 0 km/h
200 22-06-2010 15:54:02 24.2 C 4.4 g/m*3 24.2 C 0 km/h
Sensor: Nr:Datum:Temp:Abs-Feuchte:Windchill:Wind:
Aussen-T/F 201 22-06-2010 16:06:01 23.3 C 4.81 g/m*3 23.3 C 0 km/h
202 22-06-2010 16:18:02 23.4 C 5.26 g/m*3 23.4 C 0 km/h
203 22-06-2010 16:30:02 24.9 C 5.04 g/m*3 24.9 C 0 km/h
204 22-06-2010 16:42:01 26 C 4.87 g/m*3 26 C 0 km/h
205 22-06-2010 16:54:03 23.8 C 4.73 g/m*3 23.8 C 0 km/h
206 22-06-2010 17:06:02 23.6 C 5.32 g/m*3 23.6 C 0 km/h
207 22-06-2010 17:18:02 22.8 C 5.08 g/m*3 22.8 C 0 km/h
208 22-06-2010 17:30:03 22.7 C 5.25 g/m*3 22.7 C 0 km/h
209 22-06-2010 17:42:02 23.3 C 5.23 g/m*3 23.3 C 0 km/h
210 22-06-2010 17:54:02 24.1 C 5.03 g/m*3 24.1 C 0 km/h
211 22-06-2010 18:06:01 23.7 C 4.92 g/m*3 23.7 C 0 km/h
212 22-06-2010 18:18:02 23.8 C 6.24 g/m*3 23.8 C 0 km/h
213 22-06-2010 18:30:02 23.3 C 6.48 g/m*3 23.3 C 0 km/h
214 22-06-2010 18:42:02 22.6 C 6.63 g/m*3 22.6 C 0 km/h
215 22-06-2010 18:54:01 22.3 C 6.91 g/m*3 22.3 C 0 km/h
216 22-06-2010 19:06:02 22.7 C 6.67 g/m*3 22.7 C 0 km/h
217 22-06-2010 19:18:01 23.3 C 6.27 g/m*3 23.3 C 0 km/h
218 22-06-2010 19:30:01 23.9 C 6.06 g/m*3 23.9 C 0 km/h
219 22-06-2010 19:42:02 24 C 5.87 g/m*3 24 C 0 km/h
220 22-06-2010 19:54:02 23.5 C 6.56 g/m*3 23.5 C 0 km/h
221 22-06-2010 20:06:02 22.8 C 6.5 g/m*3 22.8 C 0 km/h
222 22-06-2010 20:18:01 22.1 C 6.44 g/m*3 22.1 C 0 km/h
223 22-06-2010 20:30:01 21.1 C 6.63 g/m*3 21.1 C 0 km/h
224 22-06-2010 20:42:02 20 C 6.74 g/m*3 20 C 0 km/h
225 22-06-2010 20:54:02 19.2 C 6.76 g/m*3 19.2 C 0 km/h
Sensor: Nr:Datum:Temp:Abs-Feuchte:Windchill:Wind:
Aussen-T/F 226 22-06-2010 21:06:02 18.9 C 6.64 g/m*3 18.9 C 0 km/h
227 22-06-2010 21:18:01 18.3 C 6.41 g/m*3 18.3 C 0 km/h
228 22-06-2010 21:30:01 18 C 6.45 g/m*3 18 C 0 km/h
229 22-06-2010 21:42:02 17.6 C 6.45 g/m*3 17.6 C 0 km/h
230 22-06-2010 21:54:02 17.3 C 6.33 g/m*3 17.3 C 0 km/h
231 22-06-2010 22:06:02 16.8 C 6.72 g/m*3 16.8 C 0 km/h
232 22-06-2010 22:18:02 16.7 C 6.82 g/m*3 16.7 C 0 km/h
233 22-06-2010 22:30:02 16.3 C 6.8 g/m*3 16.3 C 0 km/h
234 22-06-2010 22:42:02 16 C 6.81 g/m*3 16 C 0 km/h
235 22-06-2010 22:55:05 15.8 C 6.87 g/m*3 15.8 C 0 km/h
236 22-06-2010 23:07:05 15.5 C 7.01 g/m*3 15.5 C 0 km/h
237 22-06-2010 23:19:05 15.2 C 6.88 g/m*3 15.2 C 0 km/h
238 22-06-2010 23:31:05 14.9 C 6.88 g/m*3 14.9 C 0 km/h
239 22-06-2010 23:43:05 14.7 C 7.05 g/m*3 14.7 C 0 km/h
240 22-06-2010 23:55:05 14.6 C 7.13 g/m*3 14.6 C 0 km/h

Legende:
   Min
   Max


Maximal/Minimal-Werte vom 14.04.2020 - 16.05.2020

Sensor Min Max Avg
Temp
(Aussen-T/F)
-0.1 °C
15-04-2020  06:55:00
26.2 °C
17-04-2020  18:05:00
11.98 °C

Die Daten stammen von einer Davis Vantage Pro 2 Wetter-Station und werden unter Linux mit der Software wview2wettercgi und aufbereitet. Alle Angaben erfolgen ohne Gewähr für ihre Vollständigkeit oder Richtigkeit.
Kontakt: Rainer Krienke krienke@uni-koblenz.de . Meine Webseiten an der Uni Koblenz oder privat.
Version: $Revision: 0.78 $